Time;durP1;ratioP1;P1;durP2;ratioP2;P2;SDS_P1;SDS_P2;PMS_P1;PMS_P2;Temp;Humidity;BMP_temperature;BMP_pressure;BME280_temperature;BME280_humidity;BME280_pressure;Samples;Min_cycle;Max_cycle;Signal;HPM_P1;HPM_P2
2024/02/25 00:01:20;;;;;;;20.90;13.50;;;;;;;5.99;80.11;100072.66;5092736;28;20209;-66
2024/02/25 00:03:48;;;;;;;18.83;13.83;;;;;;;6.02;80.66;100075.25;5092556;28;20218;-62
2024/02/25 00:06:16;;;;;;;19.47;14.00;;;;;;;6.01;80.24;100067.56;5082681;28;20289;-62
2024/02/25 00:08:44;;;;;;;21.27;14.30;;;;;;;6.01;79.89;100083.75;5090953;28;20665;-61
2024/02/25 00:11:12;;;;;;;20.07;13.97;;;;;;;5.99;80.11;100089.72;5098440;28;20212;-62
2024/02/25 00:13:40;;;;;;;21.63;14.20;;;;;;;5.97;80.10;100094.81;5094511;28;20715;-61
2024/02/25 00:16:08;;;;;;;20.47;14.17;;;;;;;5.93;80.10;100092.19;5096128;28;20209;-64
2024/02/25 00:18:38;;;;;;;21.47;14.33;;;;;;;5.89;80.20;100091.31;5093316;28;20200;-62
2024/02/25 00:21:06;;;;;;;19.07;13.03;;;;;;;5.87;79.69;100087.03;5092605;28;20207;-64
2024/02/25 00:23:34;;;;;;;22.13;14.77;;;;;;;5.85;79.79;100098.94;5089961;28;20213;-63
2024/02/25 00:26:03;;;;;;;22.80;15.47;;;;;;;5.82;80.59;100095.53;5093349;28;20797;-63
2024/02/25 00:28:31;;;;;;;22.73;15.20;;;;;;;5.50;80.50;100045.81;5083909;28;20216;-61
2024/02/25 00:30:59;;;;;;;23.20;14.67;;;;;;;5.75;80.75;100093.75;5092310;28;20209;-62
2024/02/25 00:33:27;;;;;;;20.77;14.27;;;;;;;5.74;80.91;100094.59;5092485;28;20991;-64
2024/02/25 00:35:57;;;;;;;23.30;15.47;;;;;;;5.71;81.02;100089.47;5090514;28;20250;-63
2024/02/25 00:38:25;;;;;;;23.10;15.77;;;;;;;5.68;80.91;100091.13;5093056;28;20963;-64
2024/02/25 00:40:53;;;;;;;22.00;15.10;;;;;;;5.66;80.76;100092.81;5089844;28;20614;-64
2024/02/25 00:43:28;;;;;;;25.50;15.47;;;;;;;5.64;81.07;100090.25;5091227;28;20208;-63
2024/02/25 00:45:56;;;;;;;21.83;14.80;;;;;;;5.64;81.26;100090.25;5082723;28;20204;-65
2024/02/25 00:48:24;;;;;;;21.73;14.33;;;;;;;5.64;81.92;100092.81;5092647;28;20212;-62
2024/02/25 00:50:53;;;;;;;19.00;13.57;;;;;;;5.66;80.85;100093.66;5092929;28;20201;-64
2024/02/25 00:53:22;;;;;;;18.43;13.27;;;;;;;5.69;81.47;100088.56;5091141;28;20296;-63
2024/02/25 00:55:50;;;;;;;22.30;14.80;;;;;;;5.67;81.22;100082.59;5097734;28;20983;-64
2024/02/25 00:58:18;;;;;;;18.83;13.70;;;;;;;5.70;81.08;100084.31;5090850;28;20204;-62
2024/02/25 01:00:46;;;;;;;20.03;13.60;;;;;;;5.70;80.97;100095.41;5086207;28;20205;-64
2024/02/25 01:03:14;;;;;;;19.00;13.00;;;;;;;5.70;81.10;100095.41;5092845;28;20630;-65
2024/02/25 01:05:42;;;;;;;19.40;13.27;;;;;;;5.71;81.02;100091.16;5083103;28;20215;-63
2024/02/25 01:08:10;;;;;;;18.10;13.00;;;;;;;5.71;81.21;100086.91;5087220;28;20209;-64
2024/02/25 01:10:40;;;;;;;18.53;13.33;;;;;;;5.71;81.29;100093.72;5092433;28;20749;-64
2024/02/25 01:13:08;;;;;;;19.80;13.83;;;;;;;5.72;80.96;100082.63;5086602;28;20371;-64
2024/02/25 01:15:36;;;;;;;17.30;12.37;;;;;;;5.74;81.03;100080.94;5092343;28;20201;-64
2024/02/25 01:18:05;;;;;;;19.37;13.47;;;;;;;5.72;80.80;100073.28;5091613;28;20235;-62
2024/02/25 01:20:35;;;;;;;18.97;13.40;;;;;;;5.71;80.64;100076.69;5089195;28;20664;-62
2024/02/25 01:23:03;;;;;;;22.30;13.73;;;;;;;5.70;80.61;100072.38;5088830;28;20289;-62
2024/02/25 01:25:31;;;;;;;18.43;13.33;;;;;;;5.71;81.24;100076.69;5091862;28;20242;-62
2024/02/25 01:28:00;;;;;;;21.33;13.80;;;;;;;5.73;81.19;100069.88;5091233;28;20200;-63
2024/02/25 01:30:28;;;;;;;19.53;13.33;;;;;;;5.74;81.27;100069.03;5085670;28;20291;-61
2024/02/25 01:32:56;;;;;;;20.27;12.57;;;;;;;5.76;81.69;100075.00;5087686;28;20619;-63
2024/02/25 01:35:24;;;;;;;17.70;12.27;;;;;;;5.76;81.30;100069.88;5092347;28;20696;-62
2024/02/25 01:37:52;;;;;;;15.67;11.50;;;;;;;5.79;81.61;100067.38;5089700;28;20197;-64
2024/02/25 01:40:20;;;;;;;13.30;10.80;;;;;;;5.78;80.51;100060.56;5088316;28;20235;-62
2024/02/25 01:43:06;;;;;;;16.10;11.17;;;;;;;5.84;80.91;100071.66;5088135;28;20205;-62
2024/02/25 01:45:35;;;;;;;12.87;10.03;;;;;;;5.85;80.58;100074.22;5087870;28;20211;-62
2024/02/25 01:48:04;;;;;;;14.70;10.63;;;;;;;5.90;80.82;100081.94;5089096;28;20211;-63
2024/02/25 01:50:33;;;;;;;14.20;9.80;;;;;;;5.92;79.85;100080.25;5091117;28;20200;-64
2024/02/25 01:53:02;;;;;;;12.73;9.90;;;;;;;5.91;80.02;100084.50;5091332;28;20204;-64
2024/02/25 01:55:32;;;;;;;15.07;10.13;;;;;;;5.92;80.43;100085.34;5091728;28;20965;-63
2024/02/25 01:58:02;;;;;;;12.90;10.20;;;;;;;5.94;80.14;100079.44;5091262;28;20288;-64
2024/02/25 02:00:31;;;;;;;13.43;9.60;;;;;;;5.95;80.51;100075.19;5084260;28;20575;-64
2024/02/25 02:03:00;;;;;;;15.93;10.67;;;;;;;5.95;79.79;100076.03;5089396;28;20205;-65
2024/02/25 02:05:29;;;;;;;15.37;10.93;;;;;;;5.95;79.97;100075.19;5085678;28;20208;-64
2024/02/25 02:07:57;;;;;;;13.13;10.17;;;;;;;5.92;80.77;100070.91;5091308;28;20568;-63
2024/02/25 02:10:25;;;;;;;13.77;10.30;;;;;;;5.94;80.71;100070.91;5091553;28;20216;-65
2024/02/25 02:12:54;;;;;;;13.97;10.70;;;;;;;5.97;80.74;100076.06;5090425;28;20232;-62
2024/02/25 02:15:22;;;;;;;13.87;10.47;;;;;;;5.94;80.35;100063.25;5089853;28;20208;-63
2024/02/25 02:17:50;;;;;;;14.93;10.90;;;;;;;5.97;80.19;100047.94;5094151;28;20235;-63
2024/02/25 02:20:20;;;;;;;16.97;11.53;;;;;;;5.96;79.87;100056.44;5094427;28;20228;-64
2024/02/25 02:22:51;;;;;;;14.90;10.53;;;;;;;5.94;80.00;100053.03;5094129;28;20766;-63
2024/02/25 02:25:19;;;;;;;15.10;11.07;;;;;;;5.95;81.11;100049.63;5095562;28;20212;-67
2024/02/25 02:27:48;;;;;;;14.73;10.40;;;;;;;5.99;81.27;100041.97;5090647;28;20238;-63
2024/02/25 02:30:16;;;;;;;12.80;10.20;;;;;;;6.01;80.25;100039.44;5088940;28;20665;-62
2024/02/25 02:32:44;;;;;;;14.63;10.97;;;;;;;6.04;80.93;100036.91;5084724;28;20205;-62
2024/02/25 02:35:12;;;;;;;13.90;9.77;;;;;;;6.04;80.04;100032.63;5090721;28;20200;-64
2024/02/25 02:37:40;;;;;;;12.17;9.57;;;;;;;6.05;80.06;100031.78;5087784;28;20824;-63
2024/02/25 02:40:11;;;;;;;12.30;9.60;;;;;;;6.09;80.44;100029.25;5086561;28;20208;-65
2024/02/25 02:42:39;;;;;;;12.97;9.70;;;;;;;6.09;80.85;100035.22;5089101;28;20205;-62
2024/02/25 02:45:07;;;;;;;14.03;9.10;;;;;;;6.13;80.42;100026.72;5090533;28;20668;-61
2024/02/25 02:47:35;;;;;;;12.47;9.57;;;;;;;6.16;80.15;100020.78;5089077;28;20641;-63
2024/02/25 02:50:04;;;;;;;13.90;9.77;;;;;;;6.15;79.44;100025.03;5090669;28;20252;-69
2024/02/25 02:52:32;;;;;;;14.50;9.57;;;;;;;6.12;79.51;100022.47;5090836;28;20204;-64
2024/02/25 02:55:00;;;;;;;14.97;10.27;;;;;;;6.07;79.50;100019.00;5084224;28;20223;-63
2024/02/25 02:57:29;;;;;;;17.03;10.30;;;;;;;6.03;80.35;100028.34;5088527;28;20215;-63
2024/02/25 02:59:57;;;;;;;14.17;10.20;;;;;;;6.02;79.77;100030.91;5090610;28;20285;-62
2024/02/25 03:02:26;;;;;;;14.23;10.63;;;;;;;5.99;80.24;100025.78;5088457;28;20208;-61
2024/02/25 03:04:54;;;;;;;14.87;10.90;;;;;;;5.95;80.89;100029.16;5090460;28;20525;-61
2024/02/25 03:07:22;;;;;;;15.33;11.20;;;;;;;5.93;80.49;100028.28;5090185;28;20661;-62
2024/02/25 03:09:50;;;;;;;16.50;10.97;;;;;;;5.93;80.51;100030.81;5086939;28;20224;-64
2024/02/25 03:12:18;;;;;;;14.50;10.97;;;;;;;5.94;80.36;100023.19;5087030;28;20245;-64
2024/02/25 03:14:47;;;;;;;15.20;11.10;;;;;;;5.93;80.50;100031.72;5086891;28;20255;-64
2024/02/25 03:17:17;;;;;;;17.17;11.50;;;;;;;5.91;80.73;100033.34;5089841;28;20201;-64
2024/02/25 03:19:45;;;;;;;17.63;12.60;;;;;;;5.86;80.48;100040.16;5087090;28;20204;-63
2024/02/25 03:22:13;;;;;;;16.37;12.10;;;;;;;5.79;80.84;100039.25;5088791;28;20193;-64
2024/02/25 03:24:41;;;;;;;17.00;12.00;;;;;;;5.78;80.55;100042.66;5090374;28;20542;-62
2024/02/25 03:27:09;;;;;;;16.37;12.27;;;;;;;5.75;80.61;100044.31;5090330;28;20201;-62
2024/02/25 03:29:40;;;;;;;16.90;12.40;;;;;;;5.73;81.48;100049.41;5083296;28;20221;-61
2024/02/25 03:32:10;;;;;;;17.20;11.90;;;;;;;5.71;81.57;100051.13;5086181;28;20291;-61
2024/02/25 03:34:39;;;;;;;17.70;12.30;;;;;;;5.67;81.32;100039.16;5085839;28;20228;-62
2024/02/25 03:37:07;;;;;;;16.97;12.20;;;;;;;5.66;81.37;100034.88;5092104;28;20201;-63
2024/02/25 03:39:35;;;;;;;17.37;12.47;;;;;;;5.66;81.83;100039.97;5093787;28;20247;-64
2024/02/25 03:42:04;;;;;;;16.13;11.53;;;;;;;5.67;82.37;100045.94;5093562;28;20211;-64
2024/02/25 03:44:32;;;;;;;15.77;11.70;;;;;;;5.68;81.52;100052.78;5088594;28;20201;-66
2024/02/25 03:47:00;;;;;;;21.60;11.70;;;;;;;5.68;82.11;100056.19;5082250;28;20215;-62
2024/02/25 03:49:29;;;;;;;17.83;12.80;;;;;;;5.72;81.41;100060.50;5092159;28;20232;-61
2024/02/25 03:51:57;;;;;;;17.87;12.47;;;;;;;5.73;81.82;100049.41;5089984;28;20291;-62
2024/02/25 03:54:25;;;;;;;17.10;12.77;;;;;;;5.74;81.46;100053.69;5089017;28;20204;-64
2024/02/25 03:56:53;;;;;;;18.30;13.20;;;;;;;5.73;81.56;100053.66;5090562;28;20201;-62
2024/02/25 03:59:21;;;;;;;20.20;14.23;;;;;;;5.72;81.53;100052.81;5093068;28;20676;-61
2024/02/25 04:01:50;;;;;;;18.43;13.50;;;;;;;5.69;82.03;100057.91;5093565;28;20315;-65
2024/02/25 04:04:17;;;;;;;21.97;15.03;;;;;;;5.67;81.25;100053.59;5086499;28;20211;-61
2024/02/25 04:06:46;;;;;;;18.93;12.67;;;;;;;5.63;81.24;100057.84;5092010;28;20629;-64
2024/02/25 04:09:17;;;;;;;20.17;14.67;;;;;;;5.61;81.63;100059.53;5092576;28;20254;-60
2024/02/25 04:11:45;;;;;;;21.60;14.97;;;;;;;5.58;81.91;100054.41;5091251;28;20205;-63
2024/02/25 04:14:13;;;;;;;20.83;14.07;;;;;;;5.60;81.77;100055.28;5090899;28;20287;-63
2024/02/25 04:16:42;;;;;;;23.97;15.57;;;;;;;5.60;81.51;100049.28;5090539;28;20197;-62
2024/02/25 04:19:10;;;;;;;21.07;14.87;;;;;;;5.54;81.27;100040.72;5092260;28;20572;-61
2024/02/25 04:21:38;;;;;;;21.47;15.10;;;;;;;5.51;81.50;100048.38;5089600;28;20665;-61
2024/02/25 04:24:08;;;;;;;20.67;14.80;;;;;;;5.47;82.06;100041.53;5089805;28;20269;-62
2024/02/25 04:26:36;;;;;;;21.00;13.73;;;;;;;5.45;81.95;100044.91;5092566;28;20209;-61
2024/02/25 04:29:04;;;;;;;18.87;14.20;;;;;;;5.39;81.85;100044.88;5092621;28;20287;-63
2024/02/25 04:31:32;;;;;;;23.30;15.87;;;;;;;5.33;81.08;100037.97;5089434;28;20622;-63
2024/02/25 04:34:00;;;;;;;22.73;15.57;;;;;;;5.25;81.95;100047.28;5091083;28;20250;-61
2024/02/25 04:36:28;;;;;;;21.20;14.73;;;;;;;5.17;82.25;100042.09;5091999;28;20224;-61
2024/02/25 04:38:56;;;;;;;19.77;14.30;;;;;;;5.11;82.30;100042.00;5091334;28;20216;-63
2024/02/25 04:41:26;;;;;;;21.03;14.80;;;;;;;5.05;82.85;100036.88;5084526;28;20204;-63
2024/02/25 04:43:54;;;;;;;22.10;15.63;;;;;;;5.00;83.11;100041.91;5085004;28;20224;-63
2024/02/25 04:46:23;;;;;;;21.60;15.77;;;;;;;5.00;83.10;100041.03;5091411;28;20348;-63
2024/02/25 04:48:50;;;;;;;22.27;15.33;;;;;;;5.00;83.22;100041.91;5090338;28;20232;-63
2024/02/25 04:51:19;;;;;;;21.57;14.57;;;;;;;4.99;83.56;100036.78;5092156;28;20217;-61
2024/02/25 04:53:52;;;;;;;22.57;15.77;;;;;;;4.95;83.45;100030.78;5090182;28;20204;-62
2024/02/25 04:56:20;;;;;;;21.27;14.97;;;;;;;4.90;84.12;100021.34;5090585;28;20576;-62
2024/02/25 04:58:50;;;;;;;23.63;15.17;;;;;;;4.90;83.63;100019.69;5083690;28;20602;-63
2024/02/25 05:01:18;;;;;;;22.13;14.63;;;;;;;4.87;83.49;100021.34;5085603;28;20207;-66
2024/02/25 05:03:46;;;;;;;20.83;14.40;;;;;;;4.83;83.86;100030.66;5091383;28;20220;-61
2024/02/25 05:06:14;;;;;;;20.73;14.77;;;;;;;4.81;84.92;100030.63;5091853;28;20539;-63
2024/02/25 05:08:42;;;;;;;24.40;15.67;;;;;;;4.79;84.59;100034.03;5092359;28;20615;-64
2024/02/25 05:11:11;;;;;;;23.03;16.13;;;;;;;4.76;84.53;100039.09;5086454;28;20681;-62
2024/02/25 05:13:39;;;;;;;22.07;15.13;;;;;;;4.75;84.84;100043.34;5085939;28;20267;-60
2024/02/25 05:16:10;;;;;;;21.27;14.57;;;;;;;4.76;85.20;100041.63;5092375;28;20571;-61
2024/02/25 05:18:38;;;;;;;22.10;14.93;;;;;;;4.72;85.29;100040.75;5081057;28;20625;-60
2024/02/25 05:21:07;;;;;;;23.33;14.57;;;;;;;4.70;85.20;100031.34;5091372;28;20594;-62
2024/02/25 05:23:35;;;;;;;23.03;15.87;;;;;;;4.68;85.04;100028.78;5091720;28;20216;-63
2024/02/25 05:26:03;;;;;;;21.40;14.33;;;;;;;4.64;85.86;100038.91;5089873;28;20258;-63
2024/02/25 05:28:31;;;;;;;21.03;14.73;;;;;;;4.63;85.71;100030.41;5090880;28;20200;-64
2024/02/25 05:30:59;;;;;;;18.40;13.37;;;;;;;4.64;85.69;100037.25;5085210;28;20265;-63
2024/02/25 05:33:29;;;;;;;21.30;14.17;;;;;;;4.67;86.24;100028.75;5089248;28;20205;-62
2024/02/25 05:35:57;;;;;;;19.73;13.10;;;;;;;4.68;86.26;100023.69;5091510;28;20296;-63
2024/02/25 05:38:25;;;;;;;16.03;12.27;;;;;;;4.71;86.64;100015.19;5091802;28;20636;-67
2024/02/25 05:40:53;;;;;;;19.60;13.07;;;;;;;4.75;86.58;100012.72;5092006;28;20585;-63
2024/02/25 05:43:21;;;;;;;18.97;12.63;;;;;;;4.79;86.59;100013.59;5092080;28;20621;-64
2024/02/25 05:45:49;;;;;;;17.57;12.63;;;;;;;4.81;86.48;100017.88;5091308;28;20584;-64
2024/02/25 05:48:17;;;;;;;16.97;12.70;;;;;;;4.85;86.32;100019.59;5087851;28;20211;-64
2024/02/25 05:50:46;;;;;;;18.17;12.63;;;;;;;4.92;86.29;100027.34;5087971;28;20208;-63
2024/02/25 05:53:14;;;;;;;17.07;12.20;;;;;;;4.94;86.19;100023.13;5091169;28;20215;-65
2024/02/25 05:55:42;;;;;;;16.17;11.97;;;;;;;4.97;85.93;100033.34;5091538;28;20363;-64
2024/02/25 05:58:10;;;;;;;17.73;10.97;;;;;;;4.96;85.56;100024.84;5090905;28;20201;-70
2024/02/25 06:00:38;;;;;;;17.53;11.47;;;;;;;4.96;86.45;100023.97;5090098;28;20677;-62
2024/02/25 06:03:06;;;;;;;16.33;11.87;;;;;;;4.97;85.76;100034.22;5089359;28;20260;-65
2024/02/25 06:05:34;;;;;;;15.83;11.70;;;;;;;4.95;85.84;100035.91;5091272;28;20268;-62
2024/02/25 06:08:04;;;;;;;17.20;11.83;;;;;;;4.92;85.47;100030.75;5082475;28;20665;-63
2024/02/25 06:10:32;;;;;;;15.00;11.30;;;;;;;4.91;85.55;100031.59;5090696;28;20204;-65
2024/02/25 06:13:00;;;;;;;16.13;11.73;;;;;;;4.89;85.56;100024.75;5090469;28;20736;-63
2024/02/25 06:15:28;;;;;;;16.07;11.47;;;;;;;4.90;85.38;100026.47;5086772;28;20201;-64
2024/02/25 06:17:56;;;;;;;16.40;11.50;;;;;;;4.93;85.89;100031.59;5088865;28;20207;-62
2024/02/25 06:20:26;;;;;;;15.23;11.20;;;;;;;4.95;85.74;100035.03;5089585;28;20597;-63
2024/02/25 06:22:54;;;;;;;15.13;10.70;;;;;;;4.96;85.52;100031.66;5089248;28;20197;-63
2024/02/25 06:25:24;;;;;;;15.30;11.23;;;;;;;4.98;85.85;100030.81;5098204;28;20205;-63
2024/02/25 06:27:52;;;;;;;15.33;10.63;;;;;;;5.00;85.28;100023.16;5090172;28;20300;-62
2024/02/25 06:30:21;;;;;;;13.57;10.90;;;;;;;5.00;85.28;100024.03;5084449;28;20220;-62
2024/02/25 06:32:49;;;;;;;14.23;10.03;;;;;;;5.02;85.23;100026.63;5087189;28;20254;-61
2024/02/25 06:35:18;;;;;;;14.50;9.80;;;;;;;5.04;85.34;100027.47;5082556;28;20208;-60
2024/02/25 06:37:45;;;;;;;14.30;10.00;;;;;;;5.09;85.53;100029.25;5088690;28;20197;-66
2024/02/25 06:40:14;;;;;;;14.20;9.97;;;;;;;5.15;85.70;100032.69;5090731;28;20613;-61
2024/02/25 06:42:44;;;;;;;14.27;10.90;;;;;;;5.25;85.66;100030.25;5090836;28;20208;-59
2024/02/25 06:45:13;;;;;;;14.63;10.20;;;;;;;5.42;85.64;100024.44;5088542;28;20649;-55
2024/02/25 06:47:42;;;;;;;12.17;9.67;;;;;;;5.62;85.23;100017.78;5084654;28;20203;-59
2024/02/25 06:50:10;;;;;;;12.37;9.87;;;;;;;5.83;84.39;100014.56;5087443;28;20703;-56
2024/02/25 06:52:38;;;;;;;13.70;9.30;;;;;;;6.01;83.27;100019.81;5090596;28;20285;-59
2024/02/25 06:55:08;;;;;;;11.77;8.33;;;;;;;6.19;82.61;100024.19;5085817;28;20563;-59
2024/02/25 06:57:36;;;;;;;11.17;9.30;;;;;;;6.37;81.25;100037.94;5090837;28;20200;-59
2024/02/25 07:00:07;;;;;;;11.50;9.30;;;;;;;6.58;81.70;100040.59;5092651;28;20197;-64
2024/02/25 07:02:36;;;;;;;13.17;9.13;;;;;;;6.78;79.85;100045.81;5090365;28;20196;-63
2024/02/25 07:05:05;;;;;;;11.80;9.23;;;;;;;7.05;79.55;100044.19;5085345;28;20205;-59
2024/02/25 07:07:33;;;;;;;12.20;8.87;;;;;;;7.25;78.74;100043.41;5082464;28;20219;-59
2024/02/25 07:10:01;;;;;;;11.47;8.30;;;;;;;7.46;78.01;100039.13;5087366;28;20209;-62
2024/02/25 07:12:29;;;;;;;10.57;8.27;;;;;;;7.64;77.18;100043.41;5093081;28;20240;-59
2024/02/25 07:14:57;;;;;;;12.77;8.70;;;;;;;7.71;76.88;100032.31;5094545;28;20297;-60
2024/02/25 07:17:26;;;;;;;11.60;7.80;;;;;;;7.75;74.66;100026.31;5093437;28;20667;-59
2024/02/25 07:19:54;;;;;;;11.30;8.53;;;;;;;7.82;74.64;100027.19;5089841;28;20243;-59
2024/02/25 07:22:23;;;;;;;11.20;8.17;;;;;;;7.92;75.13;100023.75;5092328;28;20544;-61
2024/02/25 07:24:51;;;;;;;12.27;9.40;;;;;;;8.03;73.48;100028.84;5087645;28;20240;-58
2024/02/25 07:27:19;;;;;;;10.60;8.57;;;;;;;8.01;72.97;100016.03;5090449;28;20495;-59
2024/02/25 07:29:47;;;;;;;11.27;8.97;;;;;;;7.91;72.49;100016.91;5092114;28;20200;-61
2024/02/25 07:32:15;;;;;;;10.63;8.67;;;;;;;7.75;72.56;100010.94;5093638;28;20256;-58
2024/02/25 07:34:44;;;;;;;14.10;9.13;;;;;;;7.58;73.53;99999.81;5093381;28;20680;-63
2024/02/25 07:37:12;;;;;;;10.37;8.27;;;;;;;7.44;73.39;99998.13;5093193;28;20222;-59
2024/02/25 07:39:40;;;;;;;13.03;8.93;;;;;;;7.35;75.09;99992.13;5092601;28;21325;-59
2024/02/25 07:42:08;;;;;;;10.93;9.60;;;;;;;7.30;74.69;99994.69;5083335;28;20214;-62
2024/02/25 07:44:36;;;;;;;14.43;10.20;;;;;;;7.26;75.30;99985.31;5088287;28;20266;-59
2024/02/25 07:47:05;;;;;;;12.33;9.43;;;;;;;7.28;75.51;99985.28;5084735;28;20255;-62
2024/02/25 07:49:32;;;;;;;13.00;9.20;;;;;;;7.26;75.17;99987.88;5091811;28;20196;-61
2024/02/25 07:52:02;;;;;;;10.90;8.47;;;;;;;7.26;75.82;99983.59;5088279;28;20233;-59
2024/02/25 07:54:30;;;;;;;12.50;8.60;;;;;;;7.31;76.05;99986.16;5090346;28;20212;-61
2024/02/25 07:56:59;;;;;;;12.43;9.03;;;;;;;7.37;75.79;99985.31;5093339;28;20214;-62
2024/02/25 07:59:27;;;;;;;11.40;9.73;;;;;;;7.41;76.14;99981.91;5095661;28;20197;-60
2024/02/25 08:01:56;;;;;;;14.27;9.17;;;;;;;7.55;76.31;99984.44;5089730;28;20193;-60
2024/02/25 08:04:24;;;;;;;12.00;9.50;;;;;;;7.82;75.73;99975.88;5093750;28;20205;-59
2024/02/25 08:06:52;;;;;;;15.00;10.63;;;;;;;8.28;75.43;99968.06;5098367;28;20204;-60
2024/02/25 08:09:22;;;;;;;11.90;9.03;;;;;;;8.85;73.65;99964.41;5093482;28;20321;-61
2024/02/25 08:11:50;;;;;;;13.13;9.80;;;;;;;9.36;71.30;99958.91;5090651;28;20624;-63
2024/02/25 08:14:20;;;;;;;10.97;9.20;;;;;;;9.79;68.88;99949.06;5085550;28;20200;-61
2024/02/25 08:16:48;;;;;;;18.00;10.93;;;;;;;10.10;67.56;99959.91;5086115;28;20276;-61
2024/02/25 08:19:16;;;;;;;11.87;9.83;;;;;;;10.26;66.72;99950.31;5093420;28;20205;-60
2024/02/25 08:21:45;;;;;;;13.33;10.53;;;;;;;10.15;65.96;99954.72;5089348;28;20238;-60
2024/02/25 08:24:13;;;;;;;12.27;9.93;;;;;;;9.90;66.32;99951.53;5078921;28;20211;-60
2024/02/25 08:26:43;;;;;;;13.03;10.17;;;;;;;9.63;67.17;99953.53;5083212;28;20205;-61
2024/02/25 08:29:11;;;;;;;15.77;10.97;;;;;;;9.43;67.66;99948.56;5080371;28;20209;-61
2024/02/25 08:31:40;;;;;;;13.27;10.77;;;;;;;9.28;68.94;99947.81;5091253;28;20730;-61
2024/02/25 08:34:09;;;;;;;13.50;11.00;;;;;;;9.18;69.78;99947.91;5098454;28;20208;-61
2024/02/25 08:36:37;;;;;;;13.73;10.83;;;;;;;9.10;70.28;99941.97;5090517;28;20189;-60
2024/02/25 08:39:05;;;;;;;15.50;10.70;;;;;;;9.11;70.37;99953.09;5092066;28;20270;-60
2024/02/25 08:41:33;;;;;;;13.43;11.30;;;;;;;9.10;71.11;99947.13;5091303;28;20721;-62
2024/02/25 08:44:03;;;;;;;14.90;10.50;;;;;;;9.12;71.30;99941.94;5091288;28;20261;-60
2024/02/25 08:46:31;;;;;;;13.57;10.67;;;;;;;9.12;70.90;99942.81;5096600;28;20200;-59
2024/02/25 08:48:59;;;;;;;16.83;12.10;;;;;;;9.10;70.71;99921.41;5086698;28;20193;-60
2024/02/25 08:51:30;;;;;;;14.37;10.83;;;;;;;9.05;70.97;99914.59;5092463;28;20201;-60
2024/02/25 08:53:58;;;;;;;14.00;11.37;;;;;;;8.99;70.57;99912.94;5092934;28;20592;-63
2024/02/25 08:56:26;;;;;;;15.50;11.47;;;;;;;8.92;71.74;99913.84;5095793;28;20200;-61
2024/02/25 08:58:55;;;;;;;16.77;11.70;;;;;;;8.88;71.90;99913.00;5090528;28;20287;-61
2024/02/25 09:01:24;;;;;;;15.37;11.50;;;;;;;8.85;72.52;99905.31;5091586;28;21223;-61
2024/02/25 09:03:52;;;;;;;15.20;12.17;;;;;;;8.88;72.71;99915.56;5083768;28;20224;-61
2024/02/25 09:06:23;;;;;;;15.47;11.57;;;;;;;8.90;72.61;99907.84;5092346;28;20208;-61
2024/02/25 09:08:51;;;;;;;13.37;10.60;;;;;;;8.92;72.78;99906.97;5078287;28;20217;-60
2024/02/25 09:11:20;;;;;;;15.37;11.57;;;;;;;8.93;73.20;99902.69;5080910;28;20213;-61
2024/02/25 09:13:51;;;;;;;17.10;11.83;;;;;;;8.95;73.39;99900.97;5087228;28;20244;-60
2024/02/25 09:16:19;;;;;;;16.70;12.57;;;;;;;9.03;73.80;99899.19;5093507;28;20219;-64
2024/02/25 09:18:49;;;;;;;16.13;11.70;;;;;;;9.09;73.54;99888.84;5079292;28;20205;-60
2024/02/25 09:21:18;;;;;;;14.27;11.50;;;;;;;9.18;73.46;99893.91;5090518;28;20646;-61
2024/02/25 09:23:46;;;;;;;16.30;11.77;;;;;;;9.24;73.20;99887.00;5092694;28;20219;-66
2024/02/25 09:26:14;;;;;;;16.37;12.43;;;;;;;9.27;73.03;99884.41;5092025;28;20222;-63
2024/02/25 09:28:55;;;;;;;15.37;11.63;;;;;;;9.29;72.97;99883.56;5086966;28;20632;-63
2024/02/25 09:31:23;;;;;;;15.37;11.70;;;;;;;9.31;73.30;99878.38;5074651;28;20241;-63
2024/02/25 09:33:54;;;;;;;15.10;11.33;;;;;;;9.36;73.39;99884.34;5072250;28;20233;-61
2024/02/25 09:36:24;;;;;;;17.07;11.70;;;;;;;9.39;73.06;99881.75;5076919;28;20693;-62
2024/02/25 09:38:52;;;;;;;15.73;11.67;;;;;;;9.43;73.49;99880.84;5090358;28;20242;-62
2024/02/25 09:41:27;;;;;;;14.53;11.17;;;;;;;9.46;73.48;99878.22;5091673;28;20254;-62
2024/02/25 09:43:56;;;;;;;18.70;12.90;;;;;;;9.45;73.69;99871.41;5088580;28;20204;-61
2024/02/25 09:46:24;;;;;;;16.33;11.77;;;;;;;9.49;73.84;99875.63;5089974;28;20204;-61
2024/02/25 09:48:54;;;;;;;17.27;12.83;;;;;;;9.51;73.75;99871.34;5085078;28;20254;-63
2024/02/25 09:51:23;;;;;;;16.43;12.60;;;;;;;9.53;73.88;99869.59;5088850;28;20652;-62
2024/02/25 09:53:52;;;;;;;16.17;12.30;;;;;;;9.55;73.92;99878.16;5087516;28;20209;-62
2024/02/25 09:56:21;;;;;;;18.77;12.77;;;;;;;9.58;74.16;99867.84;5090996;28;20201;-64
2024/02/25 09:58:49;;;;;;;21.83;14.90;;;;;;;9.59;74.23;99866.97;5092009;28;20218;-63
2024/02/25 10:01:17;;;;;;;18.83;13.00;;;;;;;9.62;74.33;99868.66;5092371;28;20204;-61
2024/02/25 10:03:46;;;;;;;16.90;12.53;;;;;;;9.62;74.13;99858.38;5089860;28;20193;-61
2024/02/25 10:06:15;;;;;;;16.30;12.33;;;;;;;9.66;74.28;99860.03;5083717;28;20274;-59
2024/02/25 10:08:47;;;;;;;17.70;12.23;;;;;;;9.68;74.63;99863.44;5091676;28;20262;-61
2024/02/25 10:11:16;;;;;;;16.07;12.60;;;;;;;9.70;74.80;99860.88;5088552;28;20870;-58
2024/02/25 10:13:45;;;;;;;16.80;12.93;;;;;;;9.73;75.00;99855.69;5085299;28;20305;-60
2024/02/25 10:16:18;;;;;;;17.77;12.97;;;;;;;9.79;74.90;99860.75;5090252;28;20197;-60
2024/02/25 10:18:50;;;;;;;16.97;12.43;;;;;;;9.83;74.90;99850.41;5089722;28;20296;-60
2024/02/25 10:21:20;;;;;;;15.83;12.03;;;;;;;9.88;74.73;99852.94;5085776;28;20204;-59
2024/02/25 10:23:54;;;;;;;18.67;12.67;;;;;;;9.95;74.47;99852.00;5086379;28;20538;-63
2024/02/25 10:26:24;;;;;;;16.23;11.67;;;;;;;10.01;74.36;99844.16;5090560;28;20274;-61
2024/02/25 10:29:04;;;;;;;17.13;12.33;;;;;;;10.06;74.14;99850.13;5093500;28;20657;-61
2024/02/25 10:31:32;;;;;;;15.50;11.73;;;;;;;10.10;74.13;99840.66;5088001;28;20196;-62
2024/02/25 10:34:01;;;;;;;15.33;12.27;;;;;;;10.17;73.87;99839.69;5090311;28;20252;-60
2024/02/25 10:36:32;;;;;;;16.63;12.40;;;;;;;10.24;73.59;99837.91;5089956;28;20209;-61
2024/02/25 10:39:02;;;;;;;15.90;12.40;;;;;;;10.30;73.20;99827.53;5090490;28;20204;-62
2024/02/25 10:41:31;;;;;;;15.70;11.40;;;;;;;10.35;73.07;99829.19;5080420;28;20212;-60
2024/02/25 10:44:02;;;;;;;18.60;11.53;;;;;;;10.39;72.69;99827.41;5088848;28;20242;-64
2024/02/25 10:46:38;;;;;;;16.90;11.63;;;;;;;10.43;72.36;99823.91;5082981;28;20208;-64
2024/02/25 10:49:09;;;;;;;16.70;11.47;;;;;;;10.46;72.13;99823.03;5085997;28;20235;-61
2024/02/25 10:51:39;;;;;;;16.90;11.20;;;;;;;10.48;71.80;99824.69;5085449;28;20273;-62
2024/02/25 10:54:11;;;;;;;14.43;11.40;;;;;;;10.50;72.25;99815.22;5090481;28;20220;-60
2024/02/25 10:56:42;;;;;;;15.87;10.47;;;;;;;10.57;71.81;99816.00;5085954;28;20684;-61
2024/02/25 10:59:12;;;;;;;17.37;11.13;;;;;;;10.62;71.73;99809.88;5083955;28;20205;-61
2024/02/25 11:01:44;;;;;;;12.33;10.10;;;;;;;10.66;71.33;99807.25;5081636;28;20796;-61
2024/02/25 11:04:12;;;;;;;14.33;9.90;;;;;;;10.70;70.57;99802.03;5094094;28;20204;-58
2024/02/25 11:06:44;;;;;;;16.03;10.70;;;;;;;10.77;69.71;99795.06;5072353;28;20212;-61
2024/02/25 11:09:13;;;;;;;16.03;10.87;;;;;;;10.84;69.89;99794.94;5085313;28;20569;-60
2024/02/25 11:11:43;;;;;;;14.20;10.27;;;;;;;10.93;69.72;99791.34;5090145;28;20219;-62
2024/02/25 11:14:35;;;;;;;14.73;10.20;;;;;;;11.01;69.06;99789.50;5086192;28;20220;-60
2024/02/25 11:17:05;;;;;;;14.43;10.80;;;;;;;11.09;68.83;99785.06;5086838;28;20510;-60
2024/02/25 11:19:34;;;;;;;14.37;9.23;;;;;;;11.18;68.33;99783.19;5091508;28;20193;-61
2024/02/25 11:22:04;;;;;;;12.97;9.87;;;;;;;11.30;67.74;99772.63;5089362;28;20228;-60
2024/02/25 11:24:46;;;;;;;13.87;9.60;;;;;;;11.53;66.79;99774.78;5087214;28;20201;-64
2024/02/25 11:27:14;;;;;;;11.77;9.67;;;;;;;11.85;66.19;99772.41;5089131;28;20222;-62
2024/02/25 11:29:43;;;;;;;12.70;9.70;;;;;;;12.25;64.99;99768.09;5086600;28;20204;-61